Terminal Aerodrome Forecast
Issued by NWS Wilmington, NC

Home | Current Version | Previous Version | Text Only | Print | Product List | Glossary On
Versions: 1 2 3 4 5 6 7 8 9 10 11 12 13 14 15 16 17 18 19 20 21 22 23 24
000
FTUS42 KILM 231732
TAFMYR
TAF
KMYR 231732Z 2318/2418 21013G24KT P6SM SCT009 OVC015
      TEMPO 2321/2401 2SM TSRA OVC009CB
     FM240100 22014G23KT 4SM TSRA OVC015CB
      TEMPO 2401/2404 2SM TSRA OVC004CB
     FM240600 24008KT P6SM -SHRA VCTS OVC008CB
     FM241500 20011G21KT P6SM -SHRA VCTS OVC025CB=

USA.gov is the U.S. government's official web portal to all federal, state and local government web resources and services.